Time,TemperatureF,DewpointF,PressureIn,WindDirection,WindDirectionDegrees,WindSpeedMPH,WindSpeedGustMPH,Humidity,HourlyPrecipIn,Conditions,Clouds,dailyrainin,SoftwareType,DateUTC
2014-09-02 00:53:00,78.0,74.0,30.05,NNE,21,0.0,0.0,89,0.00,,,0.18,,2014-09-02 04:53:00,
2014-09-02 01:13:00,78.0,74.0,30.04,NNE,21,0.0,0.0,88,0.00,,,0.18,,2014-09-02 05:13:00,
2014-09-02 01:23:00,78.0,74.0,30.04,NNE,21,0.0,0.0,88,0.00,,,0.18,,2014-09-02 05:23:00,
2014-09-02 01:53:00,78.0,74.0,30.03,NNE,29,1.0,3.0,89,0.00,,,0.18,,2014-09-02 05:53:00,
2014-09-02 02:22:00,78.0,74.0,30.03,NNE,24,0.0,2.0,89,0.00,,,0.18,,2014-09-02 06:22:00,
2014-09-02 03:22:00,78.0,74.0,30.01,NE,41,0.0,0.0,89,0.00,,,0.18,,2014-09-02 07:22:00,
2014-09-02 03:53:00,78.0,75.0,30.00,NE,46,0.0,0.0,90,0.00,,,0.18,,2014-09-02 07:53:00,
2014-09-02 04:52:00,78.0,75.0,29.98,North,5,0.0,0.0,90,0.00,,,0.18,,2014-09-02 08:52:00,
2014-09-02 05:22:00,77.0,74.0,29.98,East,98,0.0,0.0,90,0.00,,,0.18,,2014-09-02 09:22:00,
2014-09-02 06:24:00,77.0,74.0,29.98,ESE,107,0.0,0.0,90,0.00,,,0.18,,2014-09-02 10:24:00,
2014-09-02 06:54:00,77.0,74.0,29.98,ESE,107,0.0,0.0,90,0.00,,,0.18,,2014-09-02 10:54:00,
2014-09-02 07:23:00,77.0,74.0,29.99,ENE,62,0.0,0.0,90,0.00,,,0.18,,2014-09-02 11:23:00,
2014-09-02 07:52:00,77.0,74.0,30.00,ENE,62,0.0,0.0,90,0.00,,,0.18,,2014-09-02 11:52:00,
2014-09-02 08:22:00,78.0,74.0,30.02,ENE,63,0.0,0.0,89,0.00,,,0.18,,2014-09-02 12:22:00,
2014-09-02 08:52:00,80.0,76.0,30.03,ENE,63,0.0,0.0,87,0.00,,,0.18,,2014-09-02 12:52:00,
2014-09-02 09:53:00,84.0,77.0,30.03,ESE,121,0.0,0.0,79,0.00,,,0.18,,2014-09-02 13:53:00,
2014-09-02 10:23:00,85.0,77.0,30.04,ESE,113,0.0,1.0,76,0.00,,,0.18,,2014-09-02 14:23:00,
2014-09-02 10:53:00,87.0,77.0,30.04,SSE,157,0.0,0.0,73,0.00,,,0.18,,2014-09-02 14:53:00,
2014-09-02 11:22:00,89.0,78.0,30.05,ESE,105,0.0,0.0,71,0.00,,,0.18,,2014-09-02 15:22:00,
2014-09-02 12:13:00,90.0,78.0,30.05,East,87,4.0,7.0,67,0.00,,,0.18,,2014-09-02 16:13:00,
2014-09-02 13:13:00,91.0,78.0,30.03,West,281,1.0,5.0,67,0.00,,,0.18,,2014-09-02 17:13:00,
2014-09-02 13:23:00,91.0,79.0,30.03,NW,313,6.0,10.0,69,0.00,,,0.18,,2014-09-02 17:23:00,
2014-09-02 13:53:00,86.0,76.0,30.02,NNE,15,4.0,11.0,73,0.00,,,0.18,,2014-09-02 17:53:00,
2014-09-02 14:13:00,86.0,78.0,30.01,WNW,294,2.0,7.0,76,0.00,,,0.18,,2014-09-02 18:13:00,
2014-09-02 14:23:00,88.0,78.0,30.01,West,262,2.0,7.0,73,0.00,,,0.18,,2014-09-02 18:23:00,
2014-09-02 15:22:00,90.0,79.0,29.98,WSW,238,5.0,11.0,70,0.00,,,0.18,,2014-09-02 19:22:00,
2014-09-02 15:53:00,90.0,78.0,29.96,West,263,4.0,7.0,68,0.00,,,0.18,,2014-09-02 19:53:00,
2014-09-02 16:23:00,90.0,78.0,29.96,WSW,246,4.0,8.0,68,0.00,,,0.18,,2014-09-02 20:23:00,
2014-09-02 16:53:00,89.0,77.0,29.94,West,267,7.0,14.0,69,0.00,,,0.18,,2014-09-02 20:53:00,
2014-09-02 17:22:00,88.0,78.0,29.94,West,268,3.0,9.0,72,0.00,,,0.18,,2014-09-02 21:22:00,
2014-09-02 17:54:00,89.0,77.0,29.93,SW,236,4.0,6.0,68,0.00,,,0.18,,2014-09-02 21:54:00,
2014-09-02 18:23:00,89.0,77.0,29.92,NNW,344,4.0,9.0,68,0.00,,,0.18,,2014-09-02 22:23:00,
2014-09-02 19:23:00,88.0,76.0,29.94,NW,310,5.0,7.0,68,0.00,,,0.18,,2014-09-02 23:23:00,
2014-09-02 19:52:00,85.0,75.0,29.93,NNW,329,4.0,7.0,71,0.00,,,0.18,,2014-09-02 23:52:00,
2014-09-02 20:22:00,84.0,75.0,29.96,NNW,343,0.0,3.0,75,0.03,,,0.03,,2014-09-03 00:22:00,
2014-09-02 20:52:00,81.0,75.0,29.96,NW,318,4.0,6.0,83,0.28,,,0.28,,2014-09-03 00:52:00,
2014-09-02 21:11:00,80.0,75.0,29.96,WSW,237,0.0,2.0,85,0.30,,,0.30,,2014-09-03 01:11:00,
2014-09-02 21:23:00,80.0,76.0,29.96,SSE,161,0.0,0.0,88,0.27,,,0.30,,2014-09-03 01:23:00,
2014-09-02 21:42:00,80.0,76.0,29.98,South,184,0.0,4.0,89,0.25,,,0.30,,2014-09-03 01:42:00,
2014-09-02 21:53:00,79.0,75.0,29.97,SSW,202,0.0,6.0,88,0.02,,,0.30,,2014-09-03 01:53:00,
2014-09-02 22:12:00,78.0,74.0,29.97,South,190,0.0,1.0,88,0.00,,,0.30,,2014-09-03 02:12:00,
2014-09-02 22:22:00,78.0,74.0,29.97,South,190,0.0,0.0,89,0.00,,,0.30,,2014-09-03 02:22:00,
2014-09-02 22:53:00,78.0,75.0,29.99,South,191,0.0,0.0,90,0.00,,,0.30,,2014-09-03 02:53:00,
2014-09-02 23:12:00,78.0,75.0,29.98,ESE,118,0.0,0.0,90,0.00,,,0.30,,2014-09-03 03:12:00,
2014-09-02 23:22:00,78.0,75.0,29.99,ESE,118,0.0,0.0,90,0.00,,,0.30,,2014-09-03 03:22:00,